createdAt,value
2023-04-05T00:01:12.397Z,6.99
2023-04-05T00:06:20.280Z,7.04
2023-04-05T00:11:23.503Z,7.07
2023-04-05T00:16:28.915Z,7.10
2023-04-05T00:21:33.137Z,7.23
2023-04-05T00:26:36.290Z,6.85
2023-04-05T00:31:40.551Z,6.65
2023-04-05T00:36:43.383Z,6.81
2023-04-05T00:41:48.613Z,6.53
2023-04-05T00:46:52.985Z,6.68
2023-04-05T00:51:56.055Z,6.56
2023-04-05T00:56:59.551Z,6.48
2023-04-05T01:02:09.536Z,6.28
2023-04-05T01:07:20.090Z,5.72
2023-04-05T01:12:26.211Z,6.21
2023-04-05T01:17:37.455Z,6.52
2023-04-05T01:23:25.016Z,6.61
2023-04-05T01:28:57.657Z,6.76
2023-04-05T01:34:09.206Z,6.47
2023-04-05T01:39:16.284Z,6.17
2023-04-05T01:44:19.139Z,6.41
2023-04-05T01:49:24.411Z,6.41
2023-04-05T01:54:28.392Z,6.17
2023-04-05T01:59:31.376Z,5.99
2023-04-05T02:04:39.419Z,5.80
2023-04-05T02:09:42.187Z,5.95
2023-04-05T02:14:45.031Z,5.89
2023-04-05T02:19:49.842Z,5.70
2023-04-05T02:24:52.609Z,5.94
2023-04-05T02:29:55.785Z,5.87
2023-04-05T02:34:59.918Z,5.78
2023-04-05T02:40:08.098Z,5.63
2023-04-05T02:45:13.496Z,5.52
2023-04-05T02:50:20.548Z,5.39
2023-04-05T02:55:23.416Z,5.62
2023-04-05T03:00:26.340Z,5.55
2023-04-05T03:05:33.257Z,5.69
2023-04-05T03:10:39.036Z,5.65
2023-04-05T03:15:49.431Z,5.73
2023-04-05T03:20:56.850Z,5.49
2023-04-05T03:26:01.301Z,5.85
2023-04-05T03:31:07.780Z,5.72
2023-04-05T03:36:16.420Z,5.77
2023-04-05T03:41:20.845Z,5.61
2023-04-05T03:46:26.158Z,5.46
2023-04-05T03:51:32.662Z,5.48
2023-04-05T03:56:35.598Z,5.48
2023-04-05T04:01:46.861Z,5.97
2023-04-05T04:06:52.423Z,6.10
2023-04-05T04:11:59.786Z,5.74
2023-04-05T04:17:03.335Z,5.49
2023-04-05T04:22:20.659Z,5.54
2023-04-05T04:27:44.837Z,5.81
2023-04-05T04:33:09.220Z,6.14
2023-04-05T04:38:20.442Z,6.09
2023-04-05T04:43:43.951Z,5.25
2023-04-05T04:49:10.382Z,5.58
2023-04-05T04:54:16.816Z,5.97
2023-04-05T04:59:19.757Z,5.95
2023-04-05T05:04:22.860Z,6.31
2023-04-05T05:09:27.280Z,6.13
2023-04-05T05:14:33.805Z,6.31
2023-04-05T05:19:36.608Z,6.34
2023-04-05T05:24:41.352Z,6.41
2023-04-05T05:29:44.258Z,6.12
2023-04-05T05:34:48.625Z,6.96
2023-04-05T05:39:52.818Z,6.47
2023-04-05T05:44:55.624Z,7.17
2023-04-05T05:49:58.737Z,7.71
2023-04-05T05:55:02.864Z,7.84
2023-04-05T06:00:09.417Z,7.77
2023-04-05T06:05:14.466Z,8.14
2023-04-05T06:10:18.770Z,9.45
2023-04-05T06:15:21.524Z,9.22
2023-04-05T06:20:24.281Z,9.00
2023-04-05T06:25:28.512Z,10.08
2023-04-05T06:30:31.588Z,12.23
2023-04-05T06:35:34.334Z,14.92
2023-04-05T06:40:38.874Z,17.13
2023-04-05T06:45:41.776Z,18.25
2023-04-05T06:50:44.547Z,19.73
2023-04-05T06:55:51.546Z,18.48
2023-04-05T07:00:54.861Z,18.20
2023-04-05T07:06:00.122Z,16.92
2023-04-05T07:11:04.260Z,16.29
2023-04-05T07:16:07.528Z,17.60
2023-04-05T07:21:10.344Z,15.13
2023-04-05T07:26:14.456Z,13.63
2023-04-05T07:31:17.488Z,12.17
2023-04-05T07:36:20.462Z,14.14
2023-04-05T07:41:26.513Z,15.81
2023-04-05T07:46:30.013Z,15.90
2023-04-05T07:51:36.168Z,17.07
2023-04-05T07:56:40.582Z,17.52
2023-04-05T08:01:43.409Z,13.98
2023-04-05T08:06:46.899Z,12.71
2023-04-05T08:11:51.007Z,13.26
2023-04-05T08:16:53.815Z,12.64
2023-04-05T08:21:56.586Z,11.33
2023-04-05T08:27:00.944Z,11.41
2023-04-05T08:32:04.414Z,12.08
2023-04-05T08:37:07.624Z,11.67
2023-04-05T08:42:16.792Z,11.93
2023-04-05T08:47:20.701Z,13.36
2023-04-05T08:52:23.718Z,12.86
2023-04-05T08:57:30.313Z,12.16
2023-04-05T09:02:34.588Z,12.62
2023-04-05T09:07:38.587Z,12.51
2023-04-05T09:12:43.283Z,12.04
2023-04-05T09:17:46.506Z,12.76
2023-04-05T09:22:49.390Z,12.81
2023-04-05T09:27:57.322Z,12.98
2023-04-05T09:33:00.298Z,13.78
2023-04-05T09:38:05.176Z,13.55
2023-04-05T09:43:11.828Z,12.90
2023-04-05T09:48:14.610Z,12.94
2023-04-05T09:53:18.723Z,13.36
2023-04-05T09:58:25.753Z,14.67
2023-04-05T10:03:31.147Z,13.74
2023-04-05T10:08:34.284Z,13.31
2023-04-05T10:13:40.576Z,13.64
2023-04-05T10:18:50.521Z,12.93
2023-04-05T10:24:01.477Z,13.34
2023-04-05T10:29:13.189Z,15.34
2023-04-05T10:34:25.508Z,15.71
2023-04-05T10:39:30.428Z,15.40
2023-04-05T10:44:37.478Z,15.70
2023-04-05T10:49:43.297Z,16.10
2023-04-05T10:54:46.497Z,15.00
2023-04-05T10:59:52.514Z,15.39
2023-04-05T11:04:56.892Z,14.29
2023-04-05T11:10:02.744Z,15.93
2023-04-05T11:15:34.393Z,16.23
2023-04-05T11:20:56.165Z,14.94
2023-04-05T11:26:06.739Z,14.08
2023-04-05T11:31:19.121Z,14.18
2023-04-05T11:36:33.516Z,15.01
2023-04-05T11:41:36.245Z,15.92
2023-04-05T11:46:41.335Z,16.22
2023-04-05T11:51:48.577Z,14.85
2023-04-05T11:56:53.059Z,15.88
2023-04-05T12:02:01.272Z,16.73
2023-04-05T12:07:11.698Z,16.63
2023-04-05T12:12:17.729Z,18.21
2023-04-05T12:17:39.240Z,18.47
2023-04-05T12:22:43.389Z,15.93
2023-04-05T12:27:46.748Z,15.27
2023-04-05T12:32:52.610Z,15.66
2023-04-05T12:38:00.917Z,14.75
2023-04-05T12:43:05.041Z,14.31
2023-04-05T12:48:11.764Z,14.20
2023-04-05T12:53:20.194Z,13.86
2023-04-05T12:58:25.050Z,13.16
2023-04-05T13:03:29.375Z,12.99
2023-04-05T13:08:32.245Z,14.62
2023-04-05T13:13:35.259Z,13.40
2023-04-05T13:18:39.511Z,13.93
2023-04-05T13:23:42.657Z,13.83
2023-04-05T13:28:48.229Z,15.56
2023-04-05T13:33:52.738Z,16.19
2023-04-05T13:38:55.463Z,16.13
2023-04-05T13:44:01.118Z,15.68
2023-04-05T13:49:06.146Z,15.82
2023-04-05T13:54:28.058Z,16.19
2023-04-05T13:59:31.622Z,15.72
2023-04-05T14:04:35.931Z,14.75
2023-04-05T14:09:38.760Z,14.19
2023-04-05T14:14:43.093Z,14.41
2023-04-05T14:19:49.961Z,14.10
2023-04-05T14:25:02.831Z,13.69
2023-04-05T14:30:59.531Z,14.07
2023-04-05T14:36:11.569Z,14.85
2023-04-05T14:41:20.527Z,15.25
2023-04-05T14:46:23.895Z,15.30
2023-04-05T14:51:37.268Z,15.06
2023-04-05T14:56:40.358Z,15.82
2023-04-05T15:01:45.584Z,15.56
2023-04-05T15:06:50.003Z,15.48
2023-04-05T15:11:56.032Z,15.52
2023-04-05T15:16:59.392Z,15.03
2023-04-05T15:22:24.467Z,14.48
2023-04-05T15:27:27.774Z,14.57
2023-04-05T15:32:42.170Z,14.77
2023-04-05T15:37:58.644Z,13.62
2023-04-05T15:48:34.105Z,14.02
2023-04-05T15:53:46.452Z,13.91
2023-04-05T15:59:00.854Z,14.12
2023-04-05T16:04:11.795Z,14.63
2023-04-05T16:09:16.366Z,13.76
2023-04-05T16:14:19.292Z,14.34
2023-04-05T16:19:23.484Z,14.08
2023-04-05T16:24:30.321Z,14.22
2023-04-05T16:29:33.307Z,13.36
2023-04-05T16:34:50.583Z,13.94
2023-04-05T16:40:02.935Z,13.77
2023-04-05T16:45:08.022Z,13.99
2023-04-05T16:50:11.660Z,14.20
2023-04-05T16:55:15.871Z,13.57
2023-04-05T17:00:19.082Z,13.96
2023-04-05T17:05:22.042Z,13.85
2023-04-05T17:10:53.581Z,13.47
2023-04-05T17:15:56.487Z,14.01
2023-04-05T17:20:59.488Z,13.77
2023-04-05T17:26:04.202Z,13.29
2023-04-05T17:31:07.300Z,13.47
2023-04-05T17:36:29.744Z,13.24
2023-04-05T17:41:40.205Z,13.09
2023-04-05T17:47:01.291Z,12.75
2023-04-05T17:52:56.040Z,12.48
2023-04-05T17:58:08.811Z,12.60
2023-04-05T18:29:51.647Z,12.62
2023-04-05T19:22:17.683Z,12.04
2023-04-05T19:47:50.324Z,11.84
2023-04-05T19:53:02.910Z,11.78
2023-04-05T20:04:39.015Z,11.39
2023-04-05T20:10:58.210Z,11.20
2023-04-05T20:16:01.321Z,11.28
2023-04-05T20:21:05.873Z,11.14
2023-04-05T20:26:45.781Z,11.07
2023-04-05T20:31:54.278Z,10.91
2023-04-05T20:37:01.610Z,10.92
2023-04-05T20:42:10.305Z,10.83
2023-04-05T20:47:13.578Z,10.91
2023-04-05T20:52:18.120Z,11.03
2023-04-05T20:57:20.999Z,10.96
2023-04-05T21:02:31.364Z,10.92
2023-04-05T21:07:36.981Z,11.03
2023-04-05T21:12:40.010Z,10.89
2023-04-05T21:23:32.791Z,10.96
2023-04-05T21:28:36.866Z,10.96
2023-04-05T21:33:47.186Z,10.81
2023-04-05T21:38:51.509Z,10.80
2023-04-05T21:44:33.409Z,10.92
2023-04-05T21:50:09.368Z,10.89
2023-04-05T21:55:47.423Z,10.82
2023-04-05T22:00:53.364Z,10.62
2023-04-05T22:05:56.219Z,10.76
2023-04-05T22:11:54.727Z,10.74
2023-04-05T22:17:01.329Z,10.53
2023-04-05T22:22:04.776Z,10.36
2023-04-05T22:27:09.243Z,10.33
2023-04-05T22:32:14.947Z,10.31
2023-04-05T22:37:17.813Z,10.32
2023-04-05T22:42:22.058Z,10.10
2023-04-05T22:47:24.958Z,10.08
2023-04-05T22:52:27.890Z,10.07
2023-04-05T22:57:32.462Z,10.03
2023-04-05T23:02:35.437Z,9.90
2023-04-05T23:07:38.356Z,9.75
2023-04-05T23:12:43.802Z,9.85
2023-04-05T23:17:46.910Z,9.81
2023-04-05T23:22:54.454Z,9.94
2023-04-05T23:27:58.712Z,9.74
2023-04-05T23:33:02.877Z,9.28
2023-04-05T23:38:07.173Z,9.25
2023-04-05T23:43:12.046Z,8.77
2023-04-05T23:48:14.988Z,8.86
2023-04-05T23:53:17.966Z,8.83
2023-04-05T23:58:22.332Z,8.45
